Time;durP1;ratioP1;P1;durP2;ratioP2;P2;SDS_P1;SDS_P2;PMS_P1;PMS_P2;Temp;Humidity;BMP_temperature;BMP_pressure;BME280_temperature;BME280_humidity;BME280_pressure;Samples;Min_cycle;Max_cycle;Signal;HPM_P1;HPM_P2
2023/06/18 00:00:33;;;;;;;8.13;3.42;;;;;;;;;;5022340;28;20045;-66
2023/06/18 00:04:13;;;;;;;7.88;3.47;;;;;;;;;;5022960;28;20067;-66
2023/06/18 00:07:53;;;;;;;5.53;3.58;;;;;;;;;;5023731;28;20044;-66
2023/06/18 00:11:34;;;;;;;6.15;3.50;;;;;;;;;;5027205;28;20362;-64
2023/06/18 00:15:14;;;;;;;8.77;3.80;;;;;;;;;;5026027;28;20057;-66
2023/06/18 00:18:56;;;;;;;9.43;4.22;;;;;;;;;;5024827;28;20060;-65
2023/06/18 00:22:38;;;;;;;9.13;3.97;;;;;;;;;;5024601;28;20053;-68
2023/06/18 00:26:18;;;;;;;16.00;3.55;;;;;;;;;;5027626;28;20372;-65
2023/06/18 00:30:00;;;;;;;9.75;3.97;;;;;;;;;;5023721;28;20053;-64
2023/06/18 00:33:40;;;;;;;7.57;3.67;;;;;;;;;;5025260;28;20118;-62
2023/06/18 00:37:20;;;;;;;12.38;4.00;;;;;;;;;;5022925;28;20658;-65
2023/06/18 00:41:01;;;;;;;10.88;3.83;;;;;;;;;;5026172;28;20090;-68
2023/06/18 00:44:41;;;;;;;8.30;3.67;;;;;;;;;;5022268;28;20079;-63
2023/06/18 00:48:21;;;;;;;12.77;4.45;;;;;;;;;;5022568;28;20045;-64
2023/06/18 00:52:01;;;;;;;11.57;4.18;;;;;;;;;;5024880;28;20535;-65
2023/06/18 00:55:42;;;;;;;8.55;4.57;;;;;;;;;;5024669;28;20057;-63
2023/06/18 00:59:22;;;;;;;12.35;4.22;;;;;;;;;;5023971;28;20637;-63
2023/06/18 01:03:02;;;;;;;12.60;3.85;;;;;;;;;;5024230;28;20056;-64
2023/06/18 01:06:43;;;;;;;11.45;3.95;;;;;;;;;;5022486;28;20058;-64
2023/06/18 01:10:29;;;;;;;9.50;4.43;;;;;;;;;;5022207;28;20136;-65
2023/06/18 01:14:09;;;;;;;11.48;4.22;;;;;;;;;;5021468;28;20099;-62
2023/06/18 01:17:46;;;;;;;10.77;3.80;;;;;;;;;;5023787;28;20512;-64
2023/06/18 01:21:25;;;;;;;14.77;4.15;;;;;;;;;;5024241;28;20139;-62
2023/06/18 01:25:09;;;;;;;9.13;4.15;;;;;;;;;;5023408;28;20141;-65
2023/06/18 01:28:50;;;;;;;9.68;4.32;;;;;;;;;;5018476;28;20037;-64
2023/06/18 01:32:30;;;;;;;12.73;4.85;;;;;;;;;;5025678;28;20494;-65
2023/06/18 01:36:10;;;;;;;9.77;4.20;;;;;;;;;;5024108;28;20531;-63
2023/06/18 01:39:30;;;;;;;12.13;4.45;;;;;;;;;;5024071;28;20130;-63
2023/06/18 01:43:13;;;;;;;8.50;4.57;;;;;;;;;;5024715;28;20429;-64
2023/06/18 01:46:53;;;;;;;11.18;4.30;;;;;;;;;;5021338;28;20053;-63
2023/06/18 01:50:34;;;;;;;9.10;3.88;;;;;;;;;;5024632;28;20045;-65
2023/06/18 01:54:14;;;;;;;7.93;4.30;;;;;;;;;;5022289;28;20053;-63
2023/06/18 01:57:55;;;;;;;7.88;4.10;;;;;;;;;;5020226;28;20900;-64
2023/06/18 02:01:35;;;;;;;9.32;4.22;;;;;;;;;;5025824;28;20079;-63
2023/06/18 02:05:15;;;;;;;9.88;4.18;;;;;;;;;;5022655;28;20595;-64
2023/06/18 02:08:57;;;;;;;7.18;4.43;;;;;;;;;;5022839;28;20091;-63
2023/06/18 02:12:38;;;;;;;11.77;4.50;;;;;;;;;;5021626;28;20225;-63
2023/06/18 02:16:19;;;;;;;10.25;4.32;;;;;;;;;;5024925;28;20137;-63
2023/06/18 02:19:59;;;;;;;6.97;4.03;;;;;;;;;;5018660;28;20049;-63
2023/06/18 02:23:39;;;;;;;7.07;4.20;;;;;;;;;;5021143;28;20044;-63
2023/06/18 02:27:20;;;;;;;9.52;4.03;;;;;;;;;;5022518;28;20103;-64
2023/06/18 02:31:01;;;;;;;13.30;4.93;;;;;;;;;;5020680;28;20103;-66
2023/06/18 02:34:41;;;;;;;12.85;4.30;;;;;;;;;;5019307;28;20124;-62
2023/06/18 02:38:21;;;;;;;9.85;3.97;;;;;;;;;;5021808;28;20052;-63
2023/06/18 02:42:01;;;;;;;8.82;4.30;;;;;;;;;;5023854;28;20053;-63
2023/06/18 02:45:41;;;;;;;9.70;4.32;;;;;;;;;;5021037;28;20050;-64
2023/06/18 02:49:22;;;;;;;8.23;4.22;;;;;;;;;;5021885;28;20064;-64
2023/06/18 02:53:02;;;;;;;10.32;4.13;;;;;;;;;;5016940;28;20055;-64
2023/06/18 02:56:43;;;;;;;8.23;3.78;;;;;;;;;;5024154;28;20052;-65
2023/06/18 03:00:24;;;;;;;9.23;4.10;;;;;;;;;;5026808;28;20800;-65
2023/06/18 03:04:04;;;;;;;8.43;3.92;;;;;;;;;;5020529;28;20123;-65
2023/06/18 03:07:46;;;;;;;8.32;3.80;;;;;;;;;;5020293;28;20069;-62
2023/06/18 03:11:26;;;;;;;6.80;3.97;;;;;;;;;;5023932;28;20051;-63
2023/06/18 03:15:06;;;;;;;9.15;3.80;;;;;;;;;;5022790;28;20552;-62
2023/06/18 03:18:47;;;;;;;8.13;3.90;;;;;;;;;;5026626;28;20045;-66
2023/06/18 03:22:29;;;;;;;7.55;4.22;;;;;;;;;;5026398;28;20052;-63
2023/06/18 03:26:09;;;;;;;9.75;4.18;;;;;;;;;;5024439;28;20105;-62
2023/06/18 03:29:50;;;;;;;11.30;4.65;;;;;;;;;;5023387;28;20464;-62
2023/06/18 03:33:30;;;;;;;9.45;4.30;;;;;;;;;;5024508;28;20088;-61
2023/06/18 03:37:11;;;;;;;10.98;4.43;;;;;;;;;;5023826;28;20744;-63
2023/06/18 03:40:50;;;;;;;6.88;4.30;;;;;;;;;;5023979;28;20064;-64
2023/06/18 03:44:30;;;;;;;13.82;4.68;;;;;;;;;;5023456;28;20517;-64
2023/06/18 03:48:11;;;;;;;9.20;4.57;;;;;;;;;;5023691;28;20056;-64
2023/06/18 03:51:51;;;;;;;11.38;4.97;;;;;;;;;;5026177;28;20033;-65
2023/06/18 03:55:31;;;;;;;12.23;4.25;;;;;;;;;;5022780;28;20086;-64
2023/06/18 03:59:12;;;;;;;13.23;4.93;;;;;;;;;;5021192;28;20468;-64
2023/06/18 04:02:52;;;;;;;8.43;4.78;;;;;;;;;;5024326;28;20061;-63
2023/06/18 04:06:32;;;;;;;13.68;4.53;;;;;;;;;;5023340;28;20042;-63
2023/06/18 04:10:13;;;;;;;9.98;4.88;;;;;;;;;;5022556;28;20053;-63
2023/06/18 04:13:54;;;;;;;8.90;4.50;;;;;;;;;;5022416;28;20114;-63
2023/06/18 04:17:34;;;;;;;9.82;4.63;;;;;;;;;;5022515;28;20747;-63
2023/06/18 04:21:14;;;;;;;8.73;4.57;;;;;;;;;;5023066;28;20049;-64
2023/06/18 04:24:56;;;;;;;11.40;4.78;;;;;;;;;;5021781;28;20493;-65
2023/06/18 04:28:36;;;;;;;8.65;4.43;;;;;;;;;;5022754;28;20489;-66
2023/06/18 04:32:16;;;;;;;11.85;4.85;;;;;;;;;;5025997;28;20054;-63
2023/06/18 04:35:57;;;;;;;11.07;5.30;;;;;;;;;;5023363;28;20130;-64
2023/06/18 04:39:37;;;;;;;10.20;5.20;;;;;;;;;;5021023;28;20401;-63
2023/06/18 04:43:18;;;;;;;11.95;4.75;;;;;;;;;;5020686;28;20049;-62
2023/06/18 04:46:59;;;;;;;12.57;5.00;;;;;;;;;;5022500;28;20063;-63
2023/06/18 04:50:38;;;;;;;7.50;4.72;;;;;;;;;;5013020;28;20154;-66
2023/06/18 04:54:20;;;;;;;10.52;4.38;;;;;;;;;;5014984;28;20046;-64
2023/06/18 04:58:00;;;;;;;8.27;4.50;;;;;;;;;;5016908;28;20057;-64
2023/06/18 05:01:41;;;;;;;8.52;4.28;;;;;;;;;;5018917;28;20075;-64
2023/06/18 05:05:22;;;;;;;10.35;4.32;;;;;;;;;;5018142;28;20045;-62
2023/06/18 05:09:03;;;;;;;10.07;4.70;;;;;;;;;;5015034;28;20050;-64
2023/06/18 05:12:43;;;;;;;8.90;4.28;;;;;;;;;;5014240;28;20049;-62
2023/06/18 05:16:23;;;;;;;7.35;4.13;;;;;;;;;;5018606;28;20211;-61
2023/06/18 05:20:08;;;;;;;7.75;4.18;;;;;;;;;;5011910;28;20701;-64
2023/06/18 05:23:47;;;;;;;7.78;4.35;;;;;;;;;;5016641;28;20544;-68
2023/06/18 05:27:28;;;;;;;7.43;4.43;;;;;;;;;;5018694;28;21578;-65
2023/06/18 05:31:09;;;;;;;8.25;3.83;;;;;;;;;;5019925;28;20484;-65
2023/06/18 05:34:49;;;;;;;9.63;4.38;;;;;;;;;;5019422;28;21701;-64
2023/06/18 05:38:30;;;;;;;6.53;4.00;;;;;;;;;;5017944;28;20144;-63
2023/06/18 05:42:11;;;;;;;8.82;4.32;;;;;;;;;;5018334;28;20408;-65
2023/06/18 05:45:51;;;;;;;7.55;4.45;;;;;;;;;;5016899;28;20049;-67
2023/06/18 05:49:32;;;;;;;10.73;4.53;;;;;;;;;;5013737;28;20328;-65
2023/06/18 05:53:13;;;;;;;8.65;4.68;;;;;;;;;;5019364;28;20911;-64
2023/06/18 05:56:53;;;;;;;12.32;4.15;;;;;;;;;;5025490;28;20056;-67
2023/06/18 06:00:36;;;;;;;12.13;4.30;;;;;;;;;;5017240;28;20068;-63
2023/06/18 06:04:16;;;;;;;7.50;4.03;;;;;;;;;;5014193;28;20531;-67
2023/06/18 06:07:57;;;;;;;13.82;4.50;;;;;;;;;;5020279;28;20060;-66
2023/06/18 06:11:38;;;;;;;9.27;4.90;;;;;;;;;;5019300;28;20048;-64
2023/06/18 06:15:19;;;;;;;13.18;4.95;;;;;;;;;;5016055;28;20044;-67
2023/06/18 06:19:00;;;;;;;16.67;6.60;;;;;;;;;;5012960;28;20048;-65
2023/06/18 06:22:42;;;;;;;14.73;7.15;;;;;;;;;;5015561;28;20409;-66
2023/06/18 06:26:23;;;;;;;10.23;6.20;;;;;;;;;;5017159;28;20456;-65
2023/06/18 06:30:03;;;;;;;13.60;6.45;;;;;;;;;;5018646;28;20049;-64
2023/06/18 06:33:44;;;;;;;24.15;7.07;;;;;;;;;;5011682;28;20428;-63
2023/06/18 06:37:14;;;;;;;12.68;6.30;;;;;;;;;;5017941;28;20135;-70
2023/06/18 06:40:22;;;;;;;11.48;5.30;;;;;;;;;;5018349;28;20052;-71
2023/06/18 06:44:02;;;;;;;11.50;6.35;;;;;;;;;;5016256;28;20106;-71
2023/06/18 06:47:46;;;;;;;12.10;6.10;;;;;;;;;;5016391;28;20041;-69
2023/06/18 06:51:27;;;;;;;8.77;5.68;;;;;;;;;;5019693;28;20076;-66
2023/06/18 06:55:07;;;;;;;14.25;6.45;;;;;;;;;;5018979;28;20512;-68
2023/06/18 06:58:48;;;;;;;10.02;5.88;;;;;;;;;;5017201;28;20450;-68
2023/06/18 07:02:30;;;;;;;11.95;5.50;;;;;;;;;;5015649;28;20413;-68
2023/06/18 07:06:09;;;;;;;10.77;5.30;;;;;;;;;;5020598;28;20045;-69
2023/06/18 07:09:50;;;;;;;11.52;6.13;;;;;;;;;;5015817;28;20394;-67
2023/06/18 07:13:30;;;;;;;9.60;6.32;;;;;;;;;;5015669;28;20064;-66
2023/06/18 07:17:10;;;;;;;15.63;6.32;;;;;;;;;;5020119;28;20054;-67
2023/06/18 07:20:52;;;;;;;12.88;6.90;;;;;;;;;;5014039;28;20564;-67
2023/06/18 07:24:32;;;;;;;11.40;6.35;;;;;;;;;;5017495;28;20586;-68
2023/06/18 07:28:14;;;;;;;12.45;6.30;;;;;;;;;;5013624;28;20057;-67
2023/06/18 07:31:55;;;;;;;8.23;6.13;;;;;;;;;;5020489;28;20106;-65
2023/06/18 07:35:36;;;;;;;12.80;6.82;;;;;;;;;;5017911;28;20057;-64
2023/06/18 07:39:17;;;;;;;10.70;7.53;;;;;;;;;;5020640;28;20048;-65
2023/06/18 07:42:57;;;;;;;13.35;7.28;;;;;;;;;;5017897;28;20049;-66
2023/06/18 07:46:37;;;;;;;16.67;7.68;;;;;;;;;;5020147;28;20169;-62
2023/06/18 07:49:43;;;;;;;8.93;6.40;;;;;;;;;;5019979;28;20454;-66
2023/06/18 07:52:49;;;;;;;13.45;8.60;;;;;;;;;;5034946;28;20503;-65
2023/06/18 07:56:32;;;;;;;11.57;7.55;;;;;;;;;;5022363;28;20187;-68
2023/06/18 08:00:12;;;;;;;14.82;7.10;;;;;;;;;;5016677;28;20171;-67
2023/06/18 08:03:53;;;;;;;7.18;6.05;;;;;;;;;;5014225;28;20049;-67
2023/06/18 08:07:35;;;;;;;12.10;6.70;;;;;;;;;;5018659;28;20082;-63
2023/06/18 08:11:15;;;;;;;9.35;6.30;;;;;;;;;;5020883;28;20056;-66
2023/06/18 08:14:55;;;;;;;11.98;5.88;;;;;;;;;;5019489;28;20056;-66
2023/06/18 08:18:35;;;;;;;11.23;6.25;;;;;;;;;;5018307;28;20057;-66
2023/06/18 08:22:15;;;;;;;13.27;5.88;;;;;;;;;;5017455;28;20073;-65
2023/06/18 08:25:57;;;;;;;12.23;6.05;;;;;;;;;;5019881;28;20532;-68
2023/06/18 08:29:39;;;;;;;9.93;6.28;;;;;;;;;;5017848;28;20099;-67
2023/06/18 08:33:19;;;;;;;11.52;6.80;;;;;;;;;;5017105;28;20508;-66
2023/06/18 08:37:00;;;;;;;15.90;6.45;;;;;;;;;;5021166;28;20111;-67
2023/06/18 08:40:42;;;;;;;13.18;6.00;;;;;;;;;;5019255;28;20041;-65
2023/06/18 08:44:25;;;;;;;10.93;6.10;;;;;;;;;;5017220;28;20068;-66
2023/06/18 08:48:06;;;;;;;13.40;6.30;;;;;;;;;;5022272;28;20374;-65
2023/06/18 08:51:45;;;;;;;14.60;6.20;;;;;;;;;;5020029;28;20060;-66
2023/06/18 08:55:25;;;;;;;11.82;6.28;;;;;;;;;;5026620;28;20045;-67
2023/06/18 08:59:08;;;;;;;19.42;9.27;;;;;;;;;;5015413;28;20067;-69
2023/06/18 09:02:48;;;;;;;18.73;11.02;;;;;;;;;;5018994;28;20049;-68
2023/06/18 09:06:28;;;;;;;21.05;10.40;;;;;;;;;;5019369;28;20459;-70
2023/06/18 09:10:09;;;;;;;12.95;6.22;;;;;;;;;;5014854;28;20053;-67
2023/06/18 09:13:37;;;;;;;13.60;5.70;;;;;;;;;;5016974;28;20064;-68
2023/06/18 09:16:44;;;;;;;11.80;5.88;;;;;;;;;;5027951;28;20130;-70
2023/06/18 09:20:24;;;;;;;12.13;6.35;;;;;;;;;;5016789;28;20049;-69
2023/06/18 09:23:25;;;;;;;13.48;6.47;;;;;;;;;;5014225;28;20091;-74
2023/06/18 09:26:33;;;;;;;13.45;6.15;;;;;;;;;;5018978;28;20056;-68
2023/06/18 09:30:16;;;;;;;13.77;6.28;;;;;;;;;;5019674;28;20064;-65
2023/06/18 09:33:56;;;;;;;13.60;6.10;;;;;;;;;;5016656;28;20045;-65
2023/06/18 09:37:36;;;;;;;17.15;6.13;;;;;;;;;;5016833;28;20095;-66
2023/06/18 09:41:17;;;;;;;13.38;5.90;;;;;;;;;;5020070;28;20037;-66
2023/06/18 09:44:59;;;;;;;13.68;6.28;;;;;;;;;;5020339;28;20489;-65
2023/06/18 09:48:39;;;;;;;12.88;6.22;;;;;;;;;;5018558;28;20750;-70
2023/06/18 09:52:24;;;;;;;13.77;5.90;;;;;;;;;;5019343;28;20064;-70
2023/06/18 09:56:04;;;;;;;17.23;6.28;;;;;;;;;;5022418;28;20809;-68
2023/06/18 09:59:44;;;;;;;15.38;6.35;;;;;;;;;;5017404;28;20115;-67
2023/06/18 10:03:25;;;;;;;12.60;5.93;;;;;;;;;;5017530;28;20131;-65
2023/06/18 10:07:15;;;;;;;12.93;5.47;;;;;;;;;;5020719;28;20087;-63
2023/06/18 10:10:55;;;;;;;17.58;5.90;;;;;;;;;;5018428;28;20246;-63
2023/06/18 10:14:35;;;;;;;15.30;5.30;;;;;;;;;;5017901;28;20071;-63
2023/06/18 10:18:22;;;;;;;10.80;5.38;;;;;;;;;;5020712;28;20504;-63
2023/06/18 10:21:57;;;;;;;9.50;5.03;;;;;;;;;;5023527;28;20056;-61
2023/06/18 10:25:43;;;;;;;12.85;4.63;;;;;;;;;;5019294;28;20442;-61
2023/06/18 10:29:23;;;;;;;16.90;6.18;;;;;;;;;;5020348;28;20053;-63
2023/06/18 10:33:03;;;;;;;18.70;5.28;;;;;;;;;;5021878;28;20080;-61
2023/06/18 10:36:44;;;;;;;7.85;4.90;;;;;;;;;;5021917;28;20060;-63
2023/06/18 10:40:24;;;;;;;7.97;4.78;;;;;;;;;;5017996;28;20175;-62
2023/06/18 10:44:11;;;;;;;9.82;4.97;;;;;;;;;;5016642;28;20056;-61
2023/06/18 10:48:01;;;;;;;7.35;3.88;;;;;;;;;;5018375;28;20053;-63
2023/06/18 10:51:57;;;;;;;11.45;4.00;;;;;;;;;;5023064;28;20049;-63
2023/06/18 10:55:30;;;;;;;11.70;4.30;;;;;;;;;;5025428;28;20250;-63
2023/06/18 10:59:13;;;;;;;13.77;6.03;;;;;;;;;;5016583;28;20049;-62
2023/06/18 11:02:53;;;;;;;11.00;4.75;;;;;;;;;;5018232;28;20049;-63
2023/06/18 11:06:34;;;;;;;11.05;4.55;;;;;;;;;;5017952;28;20044;-63
2023/06/18 11:10:14;;;;;;;10.95;4.55;;;;;;;;;;5016625;28;20061;-69
2023/06/18 11:13:57;;;;;;;9.77;4.28;;;;;;;;;;5015443;28;20049;-64
2023/06/18 11:17:50;;;;;;;7.45;4.07;;;;;;;;;;5019399;28;20085;-64
2023/06/18 11:21:32;;;;;;;6.68;4.38;;;;;;;;;;5018797;28;20050;-63
2023/06/18 11:25:13;;;;;;;7.97;4.50;;;;;;;;;;5018429;28;20052;-63
2023/06/18 11:28:53;;;;;;;6.72;5.07;;;;;;;;;;5019097;28;20397;-64
2023/06/18 11:32:33;;;;;;;9.43;5.32;;;;;;;;;;5024247;28;20143;-62
2023/06/18 11:36:14;;;;;;;11.75;5.90;;;;;;;;;;5022748;28;20053;-62
2023/06/18 11:39:54;;;;;;;8.75;4.85;;;;;;;;;;5021068;28;20299;-62
2023/06/18 11:43:34;;;;;;;9.00;4.55;;;;;;;;;;5021349;28;20560;-62
2023/06/18 11:47:15;;;;;;;8.10;4.70;;;;;;;;;;5028418;28;20049;-65
2023/06/18 11:50:56;;;;;;;8.40;4.50;;;;;;;;;;5022923;28;20439;-62
2023/06/18 11:54:35;;;;;;;9.45;4.60;;;;;;;;;;5020064;28;20062;-63
2023/06/18 11:58:16;;;;;;;7.28;4.35;;;;;;;;;;5021634;28;20049;-64
2023/06/18 12:01:56;;;;;;;9.02;4.63;;;;;;;;;;5023524;28;20677;-62
2023/06/18 12:05:40;;;;;;;10.63;4.03;;;;;;;;;;5022314;28;20617;-64
2023/06/18 12:09:27;;;;;;;6.65;4.00;;;;;;;;;;5022716;28;20511;-62
2023/06/18 12:12:45;;;;;;;;;;;;;;;;;;5025167;28;20052;-64
2023/06/18 12:16:32;;;;;;;7.63;3.70;;;;;;;;;;5024200;28;19928;-61
2023/06/18 12:20:12;;;;;;;7.97;3.50;;;;;;;;;;5021823;28;20049;-61
2023/06/18 12:23:53;;;;;;;9.23;3.95;;;;;;;;;;5021515;28;20067;-63
2023/06/18 12:27:34;;;;;;;6.93;3.90;;;;;;;;;;5026531;28;20049;-64
2023/06/18 12:31:17;;;;;;;5.70;3.17;;;;;;;;;;5021667;28;21852;-64
2023/06/18 12:35:01;;;;;;;5.97;3.30;;;;;;;;;;5020327;28;20044;-63
2023/06/18 12:38:45;;;;;;;10.15;3.42;;;;;;;;;;5022001;28;20045;-63
2023/06/18 12:42:27;;;;;;;8.05;3.67;;;;;;;;;;5020793;28;20072;-64
2023/06/18 12:46:07;;;;;;;6.53;3.63;;;;;;;;;;5024601;28;20048;-63
2023/06/18 12:49:47;;;;;;;6.63;3.90;;;;;;;;;;5019478;28;20048;-62
2023/06/18 12:53:17;;;;;;;6.50;3.42;;;;;;;;;;5020379;28;20059;-61
2023/06/18 12:57:06;;;;;;;6.95;4.25;;;;;;;;;;5022709;28;20549;-63
2023/06/18 13:00:46;;;;;;;9.73;4.32;;;;;;;;;;5019825;28;20051;-63
2023/06/18 13:04:27;;;;;;;6.60;4.05;;;;;;;;;;5017728;28;20048;-61
2023/06/18 13:08:10;;;;;;;8.02;4.25;;;;;;;;;;5022883;28;20056;-61
2023/06/18 13:11:51;;;;;;;6.45;4.30;;;;;;;;;;5024364;28;20136;-63
2023/06/18 13:15:31;;;;;;;6.45;3.97;;;;;;;;;;5019159;28;20108;-62
2023/06/18 13:19:11;;;;;;;8.13;4.00;;;;;;;;;;5016924;28;20057;-64
2023/06/18 13:22:51;;;;;;;8.27;4.30;;;;;;;;;;5017891;28;20374;-62
2023/06/18 13:26:32;;;;;;;6.75;3.53;;;;;;;;;;5018201;28;20049;-62
2023/06/18 13:30:12;;;;;;;8.85;3.75;;;;;;;;;;5018511;28;20116;-63
2023/06/18 13:33:54;;;;;;;5.90;3.47;;;;;;;;;;5018204;28;20088;-63
2023/06/18 13:37:34;;;;;;;6.88;2.90;;;;;;;;;;5019635;28;20049;-62
2023/06/18 13:41:14;;;;;;;5.30;3.05;;;;;;;;;;5018316;28;20119;-64
2023/06/18 13:44:55;;;;;;;7.82;3.50;;;;;;;;;;5019335;28;20071;-61
2023/06/18 13:48:35;;;;;;;9.48;3.60;;;;;;;;;;5018212;28;20057;-62
2023/06/18 13:52:15;;;;;;;7.55;3.58;;;;;;;;;;5021472;28;20230;-66
2023/06/18 13:55:56;;;;;;;5.00;3.05;;;;;;;;;;5016179;28;20060;-61
2023/06/18 13:59:36;;;;;;;6.43;3.50;;;;;;;;;;5018827;28;20040;-61
2023/06/18 14:03:17;;;;;;;6.57;3.45;;;;;;;;;;5020322;28;20049;-63
2023/06/18 14:06:57;;;;;;;6.03;3.22;;;;;;;;;;5016856;28;20048;-64
2023/06/18 14:10:37;;;;;;;6.25;3.20;;;;;;;;;;5019506;28;20408;-62
2023/06/18 14:14:19;;;;;;;6.90;3.40;;;;;;;;;;5017602;28;20670;-63
2023/06/18 14:17:58;;;;;;;5.80;3.40;;;;;;;;;;5019735;28;20426;-63
2023/06/18 14:21:38;;;;;;;6.63;3.55;;;;;;;;;;5019965;28;20044;-62
2023/06/18 14:25:19;;;;;;;7.55;3.22;;;;;;;;;;5017146;28;20492;-62
2023/06/18 14:28:59;;;;;;;5.40;3.20;;;;;;;;;;5015455;28;20056;-63
2023/06/18 14:32:40;;;;;;;8.80;3.42;;;;;;;;;;5018826;28;20052;-64
2023/06/18 14:36:21;;;;;;;8.65;3.20;;;;;;;;;;5021828;28;20053;-60
2023/06/18 14:40:02;;;;;;;8.57;3.17;;;;;;;;;;5018113;28;20152;-61
2023/06/18 14:43:42;;;;;;;5.75;3.50;;;;;;;;;;5017482;28;20049;-60
2023/06/18 14:47:22;;;;;;;5.15;3.17;;;;;;;;;;5029161;28;20105;-62
2023/06/18 14:51:02;;;;;;;9.55;3.60;;;;;;;;;;5028462;28;20083;-62
2023/06/18 14:54:44;;;;;;;6.05;3.35;;;;;;;;;;5021230;28;20060;-60
2023/06/18 14:58:24;;;;;;;7.40;3.22;;;;;;;;;;5018503;28;20080;-61
2023/06/18 15:02:07;;;;;;;5.32;3.47;;;;;;;;;;5018608;28;21481;-62
2023/06/18 15:05:48;;;;;;;8.27;3.42;;;;;;;;;;5023771;28;20055;-62
2023/06/18 15:09:28;;;;;;;8.95;3.50;;;;;;;;;;5019458;28;20769;-60
2023/06/18 15:13:09;;;;;;;7.10;3.15;;;;;;;;;;5018922;28;20056;-63
2023/06/18 15:16:49;;;;;;;5.68;3.50;;;;;;;;;;5023115;28;20045;-62
2023/06/18 15:20:30;;;;;;;5.10;3.28;;;;;;;;;;5020111;28;20106;-65
2023/06/18 15:24:11;;;;;;;6.55;3.42;;;;;;;;;;5020148;28;20757;-61
2023/06/18 15:27:51;;;;;;;8.50;3.55;;;;;;;;;;5021771;28;20678;-63
2023/06/18 15:31:31;;;;;;;8.00;3.42;;;;;;;;;;5018084;28;20082;-63
2023/06/18 15:35:12;;;;;;;5.35;3.30;;;;;;;;;;5012303;28;21358;-61
2023/06/18 15:38:52;;;;;;;14.15;3.85;;;;;;;;;;5019281;28;20053;-62
2023/06/18 15:42:32;;;;;;;6.72;3.22;;;;;;;;;;5022290;28;20057;-61
2023/06/18 15:46:15;;;;;;;6.70;3.80;;;;;;;;;;5024079;28;20040;-64
2023/06/18 15:49:54;;;;;;;5.65;3.65;;;;;;;;;;5021886;28;20045;-67
2023/06/18 15:53:37;;;;;;;10.40;4.10;;;;;;;;;;5021317;28;20049;-65
2023/06/18 15:57:18;;;;;;;8.43;3.85;;;;;;;;;;5023633;28;20053;-64
2023/06/18 16:00:59;;;;;;;9.80;3.90;;;;;;;;;;5018804;28;20489;-61
2023/06/18 16:04:39;;;;;;;10.52;3.95;;;;;;;;;;5021279;28;20106;-62
2023/06/18 16:08:20;;;;;;;7.28;3.20;;;;;;;;;;5020828;28;20127;-62
2023/06/18 16:12:00;;;;;;;5.55;3.25;;;;;;;;;;5019759;28;22527;-61
2023/06/18 16:15:41;;;;;;;10.65;3.50;;;;;;;;;;5019340;28;20155;-61
2023/06/18 16:19:21;;;;;;;8.93;3.28;;;;;;;;;;5019565;28;20048;-62
2023/06/18 16:22:22;;;;;;;6.78;3.58;;;;;;;;;;5018595;28;20053;-64
2023/06/18 16:24:48;;;;;;;10.05;3.20;;;;;;;;;;5023552;28;20464;-64
2023/06/18 16:27:13;;;;;;;12.25;3.90;;;;;;;;;;5018233;28;20041;-64
2023/06/18 16:30:20;;;;;;;6.63;2.95;;;;;;;;;;5018217;28;20237;-61
2023/06/18 16:34:00;;;;;;;6.93;3.15;;;;;;;;;;5014800;28;22910;-61
2023/06/18 16:37:41;;;;;;;17.50;3.97;;;;;;;;;;5021209;28;20044;-63
2023/06/18 16:41:21;;;;;;;7.93;3.65;;;;;;;;;;5020837;28;20052;-65
2023/06/18 16:45:01;;;;;;;6.50;3.17;;;;;;;;;;5015861;28;20653;-64
2023/06/18 16:48:19;;;;;;;11.02;5.35;;;;;;;;;;5016375;28;20029;-65
2023/06/18 16:50:45;;;;;;;10.43;3.40;;;;;;;;;;5019346;28;20135;-63
2023/06/18 16:53:10;;;;;;;8.30;3.03;;;;;;;;;;5022381;28;20097;-62
2023/06/18 16:55:38;;;;;;;6.28;3.00;;;;;;;;;;5022451;28;20049;-62
2023/06/18 16:58:08;;;;;;;6.05;2.90;;;;;;;;;;5012151;28;20064;-61
2023/06/18 17:00:35;;;;;;;6.13;3.00;;;;;;;;;;5020821;28;20063;-60
2023/06/18 17:03:02;;;;;;;4.57;2.97;;;;;;;;;;5018170;28;20071;-61
2023/06/18 17:05:29;;;;;;;8.10;3.40;;;;;;;;;;5015662;28;20077;-64
2023/06/18 17:07:55;;;;;;;6.35;3.10;;;;;;;;;;5016231;28;20053;-61
2023/06/18 17:10:21;;;;;;;10.40;3.58;;;;;;;;;;5015220;28;20130;-64
2023/06/18 17:12:47;;;;;;;6.13;3.35;;;;;;;;;;5013683;28;20512;-63
2023/06/18 17:15:55;;;;;;;12.25;3.20;;;;;;;;;;5011936;28;20049;-62
2023/06/18 17:19:36;;;;;;;7.50;3.50;;;;;;;;;;5015412;28;20045;-62
2023/06/18 17:23:15;;;;;;;13.73;3.15;;;;;;;;;;5017386;28;20558;-63
2023/06/18 17:26:55;;;;;;;6.78;3.05;;;;;;;;;;5020692;28;20088;-64
2023/06/18 17:30:36;;;;;;;6.28;3.05;;;;;;;;;;5019588;28;20083;-65
2023/06/18 17:34:18;;;;;;;5.55;2.92;;;;;;;;;;5017009;28;20044;-66
2023/06/18 17:37:58;;;;;;;11.00;3.47;;;;;;;;;;5018637;28;20041;-67
2023/06/18 17:40:58;;;;;;;10.45;3.20;;;;;;;;;;5015853;28;20135;-67
2023/06/18 17:43:25;;;;;;;12.57;3.38;;;;;;;;;;5018980;28;20110;-65
2023/06/18 17:46:30;;;;;;;8.10;3.83;;;;;;;;;;5015633;28;20053;-66
2023/06/18 17:49:31;;;;;;;7.68;3.80;;;;;;;;;;5019341;28;20072;-65
2023/06/18 17:52:37;;;;;;;7.68;3.50;;;;;;;;;;5021102;28;20064;-66
2023/06/18 17:56:17;;;;;;;8.82;3.30;;;;;;;;;;5016291;28;20049;-66
2023/06/18 17:59:58;;;;;;;5.68;3.03;;;;;;;;;;5036854;28;20072;-66
2023/06/18 18:03:40;;;;;;;7.93;3.20;;;;;;;;;;5038119;28;20032;-65
2023/06/18 18:07:20;;;;;;;6.40;2.97;;;;;;;;;;5038517;28;20124;-65
2023/06/18 18:11:01;;;;;;;8.85;3.40;;;;;;;;;;5040828;28;20040;-64
2023/06/18 18:14:43;;;;;;;5.80;3.20;;;;;;;;;;5038382;28;20155;-63
2023/06/18 18:18:25;;;;;;;6.07;3.15;;;;;;;;;;5033129;28;20051;-63
2023/06/18 18:22:05;;;;;;;5.32;3.30;;;;;;;;;;5036510;28;20045;-63
2023/06/18 18:25:47;;;;;;;5.07;3.08;;;;;;;;;;5039864;28;20102;-62
2023/06/18 18:29:27;;;;;;;6.45;3.03;;;;;;;;;;5042303;28;20059;-63
2023/06/18 18:33:08;;;;;;;9.50;3.50;;;;;;;;;;5040395;28;20048;-64
2023/06/18 18:36:48;;;;;;;7.10;3.20;;;;;;;;;;5032857;28;20056;-63
2023/06/18 18:40:29;;;;;;;7.53;3.25;;;;;;;;;;5038386;28;20441;-64
2023/06/18 18:44:09;;;;;;;11.60;3.30;;;;;;;;;;5044621;28;20429;-63
2023/06/18 18:47:51;;;;;;;14.48;3.75;;;;;;;;;;5036517;28;20404;-61
2023/06/18 18:51:31;;;;;;;9.40;3.50;;;;;;;;;;5040258;28;20040;-62
2023/06/18 18:55:11;;;;;;;7.65;3.35;;;;;;;;;;5034545;28;20171;-63
2023/06/18 18:58:53;;;;;;;8.05;3.58;;;;;;;;;;5023563;28;20049;-63
2023/06/18 19:02:32;;;;;;;6.68;3.90;;;;;;;;;;5027122;28;21029;-64
2023/06/18 19:06:13;;;;;;;8.35;4.00;;;;;;;;;;5027812;28;20049;-63
2023/06/18 19:09:53;;;;;;;8.45;4.00;;;;;;;;;;5029005;28;20165;-65
2023/06/18 19:13:33;;;;;;;11.20;4.65;;;;;;;;;;5027050;28;20060;-63
2023/06/18 19:17:14;;;;;;;11.38;4.03;;;;;;;;;;5027274;28;20056;-63
2023/06/18 19:20:54;;;;;;;11.18;4.40;;;;;;;;;;5033835;28;20246;-63
2023/06/18 19:24:36;;;;;;;12.95;5.20;;;;;;;;;;5044844;28;20053;-71
2023/06/18 19:28:16;;;;;;;13.63;4.78;;;;;;;;;;5034102;28;20235;-64
2023/06/18 19:31:58;;;;;;;8.82;4.57;;;;;;;;;;5029206;28;20049;-63
2023/06/18 19:35:40;;;;;;;9.00;4.35;;;;;;;;;;5026493;28;20087;-63
2023/06/18 19:39:18;;;;;;;10.00;4.05;;;;;;;;;;5031044;28;20494;-62
2023/06/18 19:43:00;;;;;;;6.70;4.78;;;;;;;;;;5031729;28;20041;-63
2023/06/18 19:46:45;;;;;;;11.80;4.78;;;;;;;;;;5038484;28;20072;-63
2023/06/18 19:50:23;;;;;;;9.48;5.32;;;;;;;;;;5035510;28;20053;-62
2023/06/18 19:54:03;;;;;;;11.05;4.75;;;;;;;;;;5029443;28;20071;-64
2023/06/18 19:57:04;;;;;;;8.23;5.00;;;;;;;;;;5030978;28;20056;-64
2023/06/18 19:59:30;;;;;;;11.20;5.28;;;;;;;;;;5034956;28;20045;-66
2023/06/18 20:01:56;;;;;;;8.00;5.65;;;;;;;;;;5035846;28;20056;-64
2023/06/18 20:04:24;;;;;;;10.27;5.38;;;;;;;;;;5035136;28;20243;-63
2023/06/18 20:06:51;;;;;;;13.80;5.40;;;;;;;;;;5050757;28;20150;-64
2023/06/18 20:09:17;;;;;;;9.00;5.00;;;;;;;;;;5037874;28;20049;-63
2023/06/18 20:11:43;;;;;;;6.95;4.85;;;;;;;;;;5032748;28;20080;-63
2023/06/18 20:14:12;;;;;;;8.65;4.90;;;;;;;;;;5043551;28;20049;-64
2023/06/18 20:16:37;;;;;;;12.20;5.85;;;;;;;;;;5046242;28;20063;-66
2023/06/18 20:19:03;;;;;;;6.53;5.15;;;;;;;;;;5042866;28;20131;-64
2023/06/18 20:21:30;;;;;;;8.77;5.70;;;;;;;;;;5032805;28;20591;-63
2023/06/18 20:23:56;;;;;;;7.63;5.60;;;;;;;;;;5034247;28;21651;-61
2023/06/18 20:26:25;;;;;;;6.78;5.07;;;;;;;;;;5035477;28;20033;-63
2023/06/18 20:29:48;;;;;;;6.53;4.75;;;;;;;;;;5037256;28;20699;-62
2023/06/18 20:33:28;;;;;;;9.10;5.30;;;;;;;;;;5038827;28;20048;-63
2023/06/18 20:37:08;;;;;;;9.35;5.00;;;;;;;;;;5038616;28;20445;-63
2023/06/18 20:40:49;;;;;;;10.48;4.97;;;;;;;;;;5042027;28;20057;-62
2023/06/18 20:44:29;;;;;;;9.93;5.30;;;;;;;;;;5045028;28;20793;-67
2023/06/18 20:48:11;;;;;;;7.85;5.03;;;;;;;;;;5045730;28;20049;-65
2023/06/18 20:51:50;;;;;;;12.57;5.72;;;;;;;;;;5037853;28;20045;-64
2023/06/18 20:55:30;;;;;;;9.32;5.85;;;;;;;;;;5041610;28;20614;-66
2023/06/18 20:59:12;;;;;;;12.98;6.03;;;;;;;;;;5040617;28;20044;-63
2023/06/18 21:02:52;;;;;;;10.18;5.80;;;;;;;;;;5042145;28;20049;-62
2023/06/18 21:06:32;;;;;;;9.88;5.20;;;;;;;;;;5041475;28;20076;-61
2023/06/18 21:09:19;;;;;;;;;;;;;;;;;;5028286;28;20049;-62
2023/06/18 21:11:45;;;;;;;8.07;5.72;;;;;;;;;;5043888;28;19924;-64